sensor_id;sensor_type;location;lat;lon;timestamp;P1;durP1;ratioP1;P2;durP2;ratioP2
10162;SDS011;5123;52.556;13.384;2022-10-15T00:00:29;20.27;;;17.30;;
10162;SDS011;5123;52.556;13.384;2022-10-15T00:03:03;20.30;;;18.03;;
10162;SDS011;5123;52.556;13.384;2022-10-15T00:05:36;19.83;;;17.23;;
10162;SDS011;5123;52.556;13.384;2022-10-15T00:08:09;21.30;;;18.23;;
10162;SDS011;5123;52.556;13.384;2022-10-15T00:10:42;23.90;;;17.67;;
10162;SDS011;5123;52.556;13.384;2022-10-15T00:13:15;21.70;;;16.77;;
10162;SDS011;5123;52.556;13.384;2022-10-15T00:15:47;20.67;;;17.33;;
10162;SDS011;5123;52.556;13.384;2022-10-15T00:18:21;22.47;;;17.70;;
10162;SDS011;5123;52.556;13.384;2022-10-15T00:20:54;20.87;;;17.87;;
10162;SDS011;5123;52.556;13.384;2022-10-15T00:23:27;24.43;;;17.37;;
10162;SDS011;5123;52.556;13.384;2022-10-15T00:26:03;23.17;;;18.83;;
10162;SDS011;5123;52.556;13.384;2022-10-15T00:28:36;21.57;;;17.40;;
10162;SDS011;5123;52.556;13.384;2022-10-15T00:31:10;22.03;;;18.10;;
10162;SDS011;5123;52.556;13.384;2022-10-15T00:33:44;22.50;;;19.30;;
10162;SDS011;5123;52.556;13.384;2022-10-15T00:36:18;22.43;;;18.93;;
10162;SDS011;5123;52.556;13.384;2022-10-15T00:38:52;24.77;;;18.73;;
10162;SDS011;5123;52.556;13.384;2022-10-15T00:41:26;24.23;;;18.93;;
10162;SDS011;5123;52.556;13.384;2022-10-15T00:44:00;24.97;;;19.50;;
10162;SDS011;5123;52.556;13.384;2022-10-15T00:46:34;24.07;;;18.97;;
10162;SDS011;5123;52.556;13.384;2022-10-15T00:49:10;27.40;;;19.50;;
10162;SDS011;5123;52.556;13.384;2022-10-15T00:51:46;25.67;;;20.30;;
10162;SDS011;5123;52.556;13.384;2022-10-15T00:54:19;28.60;;;22.53;;
10162;SDS011;5123;52.556;13.384;2022-10-15T00:56:52;31.63;;;22.20;;
10162;SDS011;5123;52.556;13.384;2022-10-15T00:59:26;31.90;;;25.27;;
10162;SDS011;5123;52.556;13.384;2022-10-15T01:02:02;33.73;;;28.40;;
10162;SDS011;5123;52.556;13.384;2022-10-15T01:04:36;36.43;;;29.43;;
10162;SDS011;5123;52.556;13.384;2022-10-15T01:07:08;35.60;;;28.03;;
10162;SDS011;5123;52.556;13.384;2022-10-15T01:09:41;32.17;;;25.80;;
10162;SDS011;5123;52.556;13.384;2022-10-15T01:12:16;31.30;;;22.67;;
10162;SDS011;5123;52.556;13.384;2022-10-15T01:14:54;29.20;;;22.53;;
10162;SDS011;5123;52.556;13.384;2022-10-15T01:17:30;28.83;;;21.37;;
10162;SDS011;5123;52.556;13.384;2022-10-15T01:23:01;28.30;;;21.77;;
10162;SDS011;5123;52.556;13.384;2022-10-15T01:25:40;30.13;;;21.53;;
10162;SDS011;5123;52.556;13.384;2022-10-15T01:28:19;26.77;;;20.70;;
10162;SDS011;5123;52.556;13.384;2022-10-15T01:30:57;27.47;;;20.63;;
10162;SDS011;5123;52.556;13.384;2022-10-15T01:33:33;24.90;;;20.20;;
10162;SDS011;5123;52.556;13.384;2022-10-15T01:36:09;24.63;;;20.40;;
10162;SDS011;5123;52.556;13.384;2022-10-15T01:38:48;25.57;;;20.73;;
10162;SDS011;5123;52.556;13.384;2022-10-15T01:41:24;25.70;;;20.73;;
10162;SDS011;5123;52.556;13.384;2022-10-15T01:43:58;26.97;;;20.30;;
10162;SDS011;5123;52.556;13.384;2022-10-15T01:46:33;25.33;;;19.47;;
10162;SDS011;5123;52.556;13.384;2022-10-15T01:49:08;27.80;;;21.10;;
10162;SDS011;5123;52.556;13.384;2022-10-15T01:51:42;24.50;;;20.53;;
10162;SDS011;5123;52.556;13.384;2022-10-15T01:54:15;26.20;;;19.80;;
10162;SDS011;5123;52.556;13.384;2022-10-15T01:56:49;25.60;;;20.87;;
10162;SDS011;5123;52.556;13.384;2022-10-15T01:59:23;26.10;;;20.33;;
10162;SDS011;5123;52.556;13.384;2022-10-15T02:01:58;27.10;;;21.10;;
10162;SDS011;5123;52.556;13.384;2022-10-15T02:04:33;25.97;;;20.60;;
10162;SDS011;5123;52.556;13.384;2022-10-15T02:07:07;25.50;;;20.73;;
10162;SDS011;5123;52.556;13.384;2022-10-15T02:09:42;26.47;;;20.27;;
10162;SDS011;5123;52.556;13.384;2022-10-15T02:12:22;27.67;;;22.23;;
10162;SDS011;5123;52.556;13.384;2022-10-15T02:15:02;25.97;;;20.23;;
10162;SDS011;5123;52.556;13.384;2022-10-15T02:17:40;25.13;;;20.67;;
10162;SDS011;5123;52.556;13.384;2022-10-15T02:20:16;28.00;;;21.20;;
10162;SDS011;5123;52.556;13.384;2022-10-15T02:22:53;22.00;;;19.40;;
10162;SDS011;5123;52.556;13.384;2022-10-15T02:25:27;28.43;;;20.80;;
10162;SDS011;5123;52.556;13.384;2022-10-15T02:28:01;24.93;;;19.77;;
10162;SDS011;5123;52.556;13.384;2022-10-15T02:30:35;27.67;;;20.30;;
10162;SDS011;5123;52.556;13.384;2022-10-15T02:33:10;27.47;;;20.07;;
10162;SDS011;5123;52.556;13.384;2022-10-15T02:35:43;27.80;;;20.30;;
10162;SDS011;5123;52.556;13.384;2022-10-15T02:38:17;24.87;;;20.17;;
10162;SDS011;5123;52.556;13.384;2022-10-15T02:40:51;25.53;;;20.70;;
10162;SDS011;5123;52.556;13.384;2022-10-15T02:43:24;26.70;;;20.47;;
10162;SDS011;5123;52.556;13.384;2022-10-15T02:45:57;24.30;;;19.40;;
10162;SDS011;5123;52.556;13.384;2022-10-15T02:48:31;24.83;;;20.70;;
10162;SDS011;5123;52.556;13.384;2022-10-15T02:51:04;26.63;;;19.77;;
10162;SDS011;5123;52.556;13.384;2022-10-15T02:53:37;24.67;;;20.60;;
10162;SDS011;5123;52.556;13.384;2022-10-15T02:56:10;26.07;;;20.60;;
10162;SDS011;5123;52.556;13.384;2022-10-15T02:58:42;25.67;;;20.67;;
10162;SDS011;5123;52.556;13.384;2022-10-15T03:01:15;29.53;;;20.83;;
10162;SDS011;5123;52.556;13.384;2022-10-15T03:03:49;29.63;;;21.30;;
10162;SDS011;5123;52.556;13.384;2022-10-15T03:06:22;27.30;;;20.83;;
10162;SDS011;5123;52.556;13.384;2022-10-15T03:08:54;28.43;;;21.50;;
10162;SDS011;5123;52.556;13.384;2022-10-15T03:11:27;24.80;;;19.63;;
10162;SDS011;5123;52.556;13.384;2022-10-15T03:14:00;26.07;;;20.23;;
10162;SDS011;5123;52.556;13.384;2022-10-15T03:16:33;27.63;;;20.77;;
10162;SDS011;5123;52.556;13.384;2022-10-15T03:19:07;24.90;;;19.53;;
10162;SDS011;5123;52.556;13.384;2022-10-15T03:21:39;23.60;;;19.90;;
10162;SDS011;5123;52.556;13.384;2022-10-15T03:24:12;27.03;;;21.00;;
10162;SDS011;5123;52.556;13.384;2022-10-15T03:26:45;26.17;;;20.23;;
10162;SDS011;5123;52.556;13.384;2022-10-15T03:29:18;27.63;;;19.87;;
10162;SDS011;5123;52.556;13.384;2022-10-15T03:31:51;24.87;;;20.53;;
10162;SDS011;5123;52.556;13.384;2022-10-15T03:34:25;25.27;;;21.17;;
10162;SDS011;5123;52.556;13.384;2022-10-15T03:36:57;27.83;;;21.03;;
10162;SDS011;5123;52.556;13.384;2022-10-15T03:39:30;26.43;;;20.30;;
10162;SDS011;5123;52.556;13.384;2022-10-15T03:42:03;26.20;;;20.53;;
10162;SDS011;5123;52.556;13.384;2022-10-15T03:44:36;29.30;;;21.07;;
10162;SDS011;5123;52.556;13.384;2022-10-15T03:47:09;29.90;;;21.47;;
10162;SDS011;5123;52.556;13.384;2022-10-15T03:49:43;26.60;;;21.10;;
10162;SDS011;5123;52.556;13.384;2022-10-15T03:52:15;25.50;;;19.90;;
10162;SDS011;5123;52.556;13.384;2022-10-15T03:54:48;25.00;;;20.37;;
10162;SDS011;5123;52.556;13.384;2022-10-15T03:57:21;25.30;;;20.47;;
10162;SDS011;5123;52.556;13.384;2022-10-15T03:59:54;26.23;;;20.83;;
10162;SDS011;5123;52.556;13.384;2022-10-15T04:02:29;26.90;;;20.93;;
10162;SDS011;5123;52.556;13.384;2022-10-15T04:05:04;26.10;;;20.83;;
10162;SDS011;5123;52.556;13.384;2022-10-15T04:07:37;24.80;;;19.87;;
10162;SDS011;5123;52.556;13.384;2022-10-15T04:10:10;29.10;;;21.17;;
10162;SDS011;5123;52.556;13.384;2022-10-15T04:12:42;24.50;;;20.07;;
10162;SDS011;5123;52.556;13.384;2022-10-15T04:15:18;26.50;;;21.10;;
10162;SDS011;5123;52.556;13.384;2022-10-15T04:17:52;25.37;;;21.00;;
10162;SDS011;5123;52.556;13.384;2022-10-15T04:20:26;27.60;;;21.23;;
10162;SDS011;5123;52.556;13.384;2022-10-15T04:22:59;26.73;;;21.27;;
10162;SDS011;5123;52.556;13.384;2022-10-15T04:25:32;24.67;;;19.90;;
10162;SDS011;5123;52.556;13.384;2022-10-15T04:28:05;24.47;;;19.57;;
10162;SDS011;5123;52.556;13.384;2022-10-15T04:30:38;23.70;;;19.63;;
10162;SDS011;5123;52.556;13.384;2022-10-15T04:33:10;24.80;;;19.90;;
10162;SDS011;5123;52.556;13.384;2022-10-15T04:35:45;25.57;;;20.27;;
10162;SDS011;5123;52.556;13.384;2022-10-15T04:38:17;27.40;;;20.50;;
10162;SDS011;5123;52.556;13.384;2022-10-15T04:40:56;23.73;;;19.10;;
10162;SDS011;5123;52.556;13.384;2022-10-15T04:43:29;24.50;;;21.40;;
10162;SDS011;5123;52.556;13.384;2022-10-15T04:46:03;28.37;;;20.33;;
10162;SDS011;5123;52.556;13.384;2022-10-15T04:48:36;25.47;;;20.10;;
10162;SDS011;5123;52.556;13.384;2022-10-15T04:51:15;25.17;;;20.03;;
10162;SDS011;5123;52.556;13.384;2022-10-15T04:53:49;26.97;;;21.17;;
10162;SDS011;5123;52.556;13.384;2022-10-15T04:56:22;22.43;;;20.00;;
10162;SDS011;5123;52.556;13.384;2022-10-15T04:58:55;25.87;;;19.10;;
10162;SDS011;5123;52.556;13.384;2022-10-15T05:01:27;22.90;;;19.10;;
10162;SDS011;5123;52.556;13.384;2022-10-15T05:04:00;25.43;;;19.37;;
10162;SDS011;5123;52.556;13.384;2022-10-15T05:06:34;20.67;;;18.30;;
10162;SDS011;5123;52.556;13.384;2022-10-15T05:09:07;23.67;;;18.67;;
10162;SDS011;5123;52.556;13.384;2022-10-15T05:11:40;24.90;;;19.53;;
10162;SDS011;5123;52.556;13.384;2022-10-15T05:14:12;23.13;;;18.23;;
10162;SDS011;5123;52.556;13.384;2022-10-15T05:16:45;24.67;;;19.17;;
10162;SDS011;5123;52.556;13.384;2022-10-15T05:19:18;25.60;;;18.77;;
10162;SDS011;5123;52.556;13.384;2022-10-15T05:21:52;26.13;;;18.57;;
10162;SDS011;5123;52.556;13.384;2022-10-15T05:24:25;25.03;;;19.07;;
10162;SDS011;5123;52.556;13.384;2022-10-15T05:26:58;21.47;;;17.43;;
10162;SDS011;5123;52.556;13.384;2022-10-15T05:29:33;20.50;;;17.87;;
10162;SDS011;5123;52.556;13.384;2022-10-15T05:32:06;25.60;;;18.73;;
10162;SDS011;5123;52.556;13.384;2022-10-15T05:34:39;23.73;;;18.80;;
10162;SDS011;5123;52.556;13.384;2022-10-15T05:37:13;23.13;;;18.70;;
10162;SDS011;5123;52.556;13.384;2022-10-15T05:39:46;25.50;;;19.47;;
10162;SDS011;5123;52.556;13.384;2022-10-15T05:42:19;21.87;;;18.07;;
10162;SDS011;5123;52.556;13.384;2022-10-15T05:44:52;20.63;;;17.93;;
10162;SDS011;5123;52.556;13.384;2022-10-15T05:47:24;22.50;;;17.90;;
10162;SDS011;5123;52.556;13.384;2022-10-15T05:49:59;25.83;;;19.50;;
10162;SDS011;5123;52.556;13.384;2022-10-15T05:52:33;23.50;;;19.00;;
10162;SDS011;5123;52.556;13.384;2022-10-15T05:55:07;21.17;;;17.23;;
10162;SDS011;5123;52.556;13.384;2022-10-15T05:57:40;22.77;;;18.33;;
10162;SDS011;5123;52.556;13.384;2022-10-15T06:00:13;21.67;;;16.73;;
10162;SDS011;5123;52.556;13.384;2022-10-15T06:02:46;25.17;;;17.30;;
10162;SDS011;5123;52.556;13.384;2022-10-15T06:05:19;19.43;;;17.33;;
10162;SDS011;5123;52.556;13.384;2022-10-15T06:07:53;22.27;;;16.93;;
10162;SDS011;5123;52.556;13.384;2022-10-15T06:10:25;20.90;;;17.67;;
10162;SDS011;5123;52.556;13.384;2022-10-15T06:12:59;19.03;;;16.57;;
10162;SDS011;5123;52.556;13.384;2022-10-15T06:15:32;21.33;;;16.00;;
10162;SDS011;5123;52.556;13.384;2022-10-15T06:18:05;18.77;;;16.30;;
10162;SDS011;5123;52.556;13.384;2022-10-15T06:20:37;21.57;;;15.33;;
10162;SDS011;5123;52.556;13.384;2022-10-15T06:23:12;20.57;;;16.63;;
10162;SDS011;5123;52.556;13.384;2022-10-15T06:25:44;20.20;;;16.37;;
10162;SDS011;5123;52.556;13.384;2022-10-15T06:28:17;20.57;;;17.33;;
10162;SDS011;5123;52.556;13.384;2022-10-15T06:30:50;19.23;;;15.20;;
10162;SDS011;5123;52.556;13.384;2022-10-15T06:33:23;22.17;;;17.27;;
10162;SDS011;5123;52.556;13.384;2022-10-15T06:35:59;23.43;;;17.00;;
10162;SDS011;5123;52.556;13.384;2022-10-15T06:38:33;21.77;;;16.53;;
10162;SDS011;5123;52.556;13.384;2022-10-15T06:41:06;19.13;;;16.63;;
10162;SDS011;5123;52.556;13.384;2022-10-15T06:43:39;18.47;;;16.30;;
10162;SDS011;5123;52.556;13.384;2022-10-15T06:46:11;18.90;;;16.20;;
10162;SDS011;5123;52.556;13.384;2022-10-15T06:48:44;18.33;;;15.67;;
10162;SDS011;5123;52.556;13.384;2022-10-15T06:51:17;22.27;;;16.90;;
10162;SDS011;5123;52.556;13.384;2022-10-15T06:53:51;22.10;;;16.07;;
10162;SDS011;5123;52.556;13.384;2022-10-15T06:56:24;19.50;;;16.40;;
10162;SDS011;5123;52.556;13.384;2022-10-15T06:58:56;19.47;;;16.27;;
10162;SDS011;5123;52.556;13.384;2022-10-15T07:01:29;19.10;;;16.87;;
10162;SDS011;5123;52.556;13.384;2022-10-15T07:04:02;20.90;;;15.30;;
10162;SDS011;5123;52.556;13.384;2022-10-15T07:06:35;18.40;;;15.10;;
10162;SDS011;5123;52.556;13.384;2022-10-15T07:09:09;20.10;;;15.53;;
10162;SDS011;5123;52.556;13.384;2022-10-15T07:11:42;18.17;;;14.37;;
10162;SDS011;5123;52.556;13.384;2022-10-15T07:14:14;16.77;;;14.43;;
10162;SDS011;5123;52.556;13.384;2022-10-15T07:16:47;16.63;;;14.70;;
10162;SDS011;5123;52.556;13.384;2022-10-15T07:19:20;17.20;;;14.30;;
10162;SDS011;5123;52.556;13.384;2022-10-15T07:21:53;17.63;;;15.27;;
10162;SDS011;5123;52.556;13.384;2022-10-15T07:24:27;17.33;;;13.77;;
10162;SDS011;5123;52.556;13.384;2022-10-15T07:27:00;18.07;;;14.50;;
10162;SDS011;5123;52.556;13.384;2022-10-15T07:29:48;16.03;;;14.23;;
10162;SDS011;5123;52.556;13.384;2022-10-15T07:32:21;16.90;;;14.57;;
10162;SDS011;5123;52.556;13.384;2022-10-15T07:34:54;15.77;;;14.00;;
10162;SDS011;5123;52.556;13.384;2022-10-15T07:37:27;17.13;;;14.43;;
10162;SDS011;5123;52.556;13.384;2022-10-15T07:40:02;15.60;;;13.87;;
10162;SDS011;5123;52.556;13.384;2022-10-15T07:42:35;17.90;;;14.60;;
10162;SDS011;5123;52.556;13.384;2022-10-15T07:45:08;16.83;;;14.07;;
10162;SDS011;5123;52.556;13.384;2022-10-15T07:47:41;17.47;;;14.10;;
10162;SDS011;5123;52.556;13.384;2022-10-15T07:50:14;16.03;;;14.03;;
10162;SDS011;5123;52.556;13.384;2022-10-15T07:52:47;16.57;;;13.93;;
10162;SDS011;5123;52.556;13.384;2022-10-15T07:55:24;18.50;;;14.03;;
10162;SDS011;5123;52.556;13.384;2022-10-15T07:57:57;17.90;;;13.93;;
10162;SDS011;5123;52.556;13.384;2022-10-15T08:00:31;16.73;;;14.27;;
10162;SDS011;5123;52.556;13.384;2022-10-15T08:03:04;15.10;;;13.60;;
10162;SDS011;5123;52.556;13.384;2022-10-15T08:05:37;15.17;;;13.63;;
10162;SDS011;5123;52.556;13.384;2022-10-15T08:08:10;15.20;;;13.13;;
10162;SDS011;5123;52.556;13.384;2022-10-15T08:10:44;13.73;;;12.33;;
10162;SDS011;5123;52.556;13.384;2022-10-15T08:13:17;14.17;;;12.67;;
10162;SDS011;5123;52.556;13.384;2022-10-15T08:15:50;14.53;;;13.10;;
10162;SDS011;5123;52.556;13.384;2022-10-15T08:18:29;14.37;;;12.23;;
10162;SDS011;5123;52.556;13.384;2022-10-15T08:21:02;13.53;;;12.13;;
10162;SDS011;5123;52.556;13.384;2022-10-15T08:23:36;13.13;;;11.73;;
10162;SDS011;5123;52.556;13.384;2022-10-15T08:26:11;15.00;;;12.57;;
10162;SDS011;5123;52.556;13.384;2022-10-15T08:28:45;13.57;;;10.80;;
10162;SDS011;5123;52.556;13.384;2022-10-15T08:31:18;13.13;;;11.83;;
10162;SDS011;5123;52.556;13.384;2022-10-15T08:33:51;11.93;;;10.73;;
10162;SDS011;5123;52.556;13.384;2022-10-15T08:36:24;12.10;;;10.90;;
10162;SDS011;5123;52.556;13.384;2022-10-15T08:38:57;12.17;;;10.97;;
10162;SDS011;5123;52.556;13.384;2022-10-15T08:41:32;14.10;;;11.10;;
10162;SDS011;5123;52.556;13.384;2022-10-15T08:44:11;12.63;;;10.70;;
10162;SDS011;5123;52.556;13.384;2022-10-15T08:46:45;12.80;;;11.23;;
10162;SDS011;5123;52.556;13.384;2022-10-15T08:49:23;13.63;;;12.23;;
10162;SDS011;5123;52.556;13.384;2022-10-15T08:52:01;13.93;;;12.27;;
10162;SDS011;5123;52.556;13.384;2022-10-15T08:54:35;12.63;;;11.33;;
10162;SDS011;5123;52.556;13.384;2022-10-15T08:57:14;12.50;;;11.23;;
10162;SDS011;5123;52.556;13.384;2022-10-15T08:59:50;11.70;;;10.50;;
10162;SDS011;5123;52.556;13.384;2022-10-15T09:02:28;13.37;;;11.40;;
10162;SDS011;5123;52.556;13.384;2022-10-15T09:05:07;16.00;;;12.67;;
10162;SDS011;5123;52.556;13.384;2022-10-15T09:07:46;14.27;;;11.33;;
10162;SDS011;5123;52.556;13.384;2022-10-15T09:10:26;15.37;;;11.23;;
10162;SDS011;5123;52.556;13.384;2022-10-15T09:13:06;15.13;;;10.77;;
10162;SDS011;5123;52.556;13.384;2022-10-15T09:15:48;13.93;;;11.30;;
10162;SDS011;5123;52.556;13.384;2022-10-15T09:18:23;12.63;;;10.83;;
10162;SDS011;5123;52.556;13.384;2022-10-15T09:20:56;12.37;;;10.67;;
10162;SDS011;5123;52.556;13.384;2022-10-15T09:23:31;12.93;;;11.13;;
10162;SDS011;5123;52.556;13.384;2022-10-15T09:26:06;12.23;;;10.10;;
10162;SDS011;5123;52.556;13.384;2022-10-15T09:28:43;12.33;;;11.03;;
10162;SDS011;5123;52.556;13.384;2022-10-15T09:31:20;11.93;;;10.53;;
10162;SDS011;5123;52.556;13.384;2022-10-15T09:33:55;12.17;;;10.93;;
10162;SDS011;5123;52.556;13.384;2022-10-15T09:36:32;12.70;;;11.40;;
10162;SDS011;5123;52.556;13.384;2022-10-15T09:39:21;13.03;;;10.87;;
10162;SDS011;5123;52.556;13.384;2022-10-15T09:41:59;13.87;;;10.70;;
10162;SDS011;5123;52.556;13.384;2022-10-15T09:44:35;12.03;;;10.73;;
10162;SDS011;5123;52.556;13.384;2022-10-15T09:47:21;13.87;;;11.33;;
10162;SDS011;5123;52.556;13.384;2022-10-15T09:49:55;14.87;;;11.60;;
10162;SDS011;5123;52.556;13.384;2022-10-15T09:52:33;12.87;;;11.23;;
10162;SDS011;5123;52.556;13.384;2022-10-15T09:55:14;12.53;;;11.23;;
10162;SDS011;5123;52.556;13.384;2022-10-15T09:57:54;12.40;;;10.07;;
10162;SDS011;5123;52.556;13.384;2022-10-15T10:03:28;12.13;;;10.30;;
10162;SDS011;5123;52.556;13.384;2022-10-15T10:06:02;13.77;;;10.93;;
10162;SDS011;5123;52.556;13.384;2022-10-15T10:08:36;13.00;;;10.53;;
10162;SDS011;5123;52.556;13.384;2022-10-15T10:11:09;13.23;;;10.27;;
10162;SDS011;5123;52.556;13.384;2022-10-15T10:13:44;10.50;;;9.43;;
10162;SDS011;5123;52.556;13.384;2022-10-15T10:16:17;10.77;;;9.33;;
10162;SDS011;5123;52.556;13.384;2022-10-15T10:19:02;9.60;;;8.67;;
10162;SDS011;5123;52.556;13.384;2022-10-15T10:21:36;10.07;;;9.07;;
10162;SDS011;5123;52.556;13.384;2022-10-15T10:24:20;10.03;;;9.07;;
10162;SDS011;5123;52.556;13.384;2022-10-15T10:26:56;10.47;;;9.23;;
10162;SDS011;5123;52.556;13.384;2022-10-15T10:29:38;10.10;;;9.03;;
10162;SDS011;5123;52.556;13.384;2022-10-15T10:32:11;10.57;;;9.07;;
10162;SDS011;5123;52.556;13.384;2022-10-15T10:34:51;10.40;;;9.30;;
10162;SDS011;5123;52.556;13.384;2022-10-15T10:37:24;10.90;;;9.07;;
10162;SDS011;5123;52.556;13.384;2022-10-15T10:39:57;9.60;;;8.70;;
10162;SDS011;5123;52.556;13.384;2022-10-15T10:42:31;9.67;;;8.77;;
10162;SDS011;5123;52.556;13.384;2022-10-15T10:45:14;8.83;;;7.93;;
10162;SDS011;5123;52.556;13.384;2022-10-15T10:47:49;9.80;;;8.37;;
10162;SDS011;5123;52.556;13.384;2022-10-15T10:50:29;9.87;;;8.70;;
10162;SDS011;5123;52.556;13.384;2022-10-15T10:53:09;9.77;;;8.80;;
10162;SDS011;5123;52.556;13.384;2022-10-15T10:55:46;10.23;;;9.13;;
10162;SDS011;5123;52.556;13.384;2022-10-15T10:58:19;10.73;;;8.70;;
10162;SDS011;5123;52.556;13.384;2022-10-15T11:00:57;10.07;;;9.03;;
10162;SDS011;5123;52.556;13.384;2022-10-15T11:03:31;10.17;;;9.23;;
10162;SDS011;5123;52.556;13.384;2022-10-15T11:06:13;9.90;;;8.90;;
10162;SDS011;5123;52.556;13.384;2022-10-15T11:08:53;9.63;;;8.43;;
10162;SDS011;5123;52.556;13.384;2022-10-15T11:11:30;11.53;;;8.57;;
10162;SDS011;5123;52.556;13.384;2022-10-15T11:14:07;9.87;;;8.73;;
10162;SDS011;5123;52.556;13.384;2022-10-15T11:16:48;10.57;;;8.40;;
10162;SDS011;5123;52.556;13.384;2022-10-15T11:19:27;9.73;;;8.57;;
10162;SDS011;5123;52.556;13.384;2022-10-15T11:22:45;9.60;;;8.13;;
10162;SDS011;5123;52.556;13.384;2022-10-15T11:25:21;9.47;;;8.40;;
10162;SDS011;5123;52.556;13.384;2022-10-15T11:27:57;9.23;;;8.33;;
10162;SDS011;5123;52.556;13.384;2022-10-15T11:30:38;8.57;;;7.77;;
10162;SDS011;5123;52.556;13.384;2022-10-15T11:33:22;9.53;;;8.53;;
10162;SDS011;5123;52.556;13.384;2022-10-15T11:35:59;10.17;;;9.07;;
10162;SDS011;5123;52.556;13.384;2022-10-15T11:38:38;10.40;;;8.97;;
10162;SDS011;5123;52.556;13.384;2022-10-15T11:41:17;8.53;;;7.73;;
10162;SDS011;5123;52.556;13.384;2022-10-15T11:43:54;11.17;;;7.73;;
10162;SDS011;5123;52.556;13.384;2022-10-15T11:46:30;9.57;;;8.57;;
10162;SDS011;5123;52.556;13.384;2022-10-15T11:49:18;8.50;;;7.63;;
10162;SDS011;5123;52.556;13.384;2022-10-15T11:54:44;8.50;;;7.60;;
10162;SDS011;5123;52.556;13.384;2022-10-15T11:57:18;9.60;;;7.77;;
10162;SDS011;5123;52.556;13.384;2022-10-15T11:59:54;7.57;;;6.87;;
10162;SDS011;5123;52.556;13.384;2022-10-15T12:02:30;7.57;;;6.87;;
10162;SDS011;5123;52.556;13.384;2022-10-15T12:05:05;8.57;;;6.90;;
10162;SDS011;5123;52.556;13.384;2022-10-15T12:07:40;8.50;;;7.43;;
10162;SDS011;5123;52.556;13.384;2022-10-15T12:10:18;9.07;;;7.40;;
10162;SDS011;5123;52.556;13.384;2022-10-15T12:12:54;8.43;;;7.60;;
10162;SDS011;5123;52.556;13.384;2022-10-15T12:15:29;7.17;;;6.53;;
10162;SDS011;5123;52.556;13.384;2022-10-15T12:18:03;7.70;;;6.90;;
10162;SDS011;5123;52.556;13.384;2022-10-15T12:20:41;7.40;;;6.70;;
10162;SDS011;5123;52.556;13.384;2022-10-15T12:23:21;8.30;;;7.00;;
10162;SDS011;5123;52.556;13.384;2022-10-15T12:25:56;8.97;;;6.93;;
10162;SDS011;5123;52.556;13.384;2022-10-15T12:28:29;7.40;;;6.70;;
10162;SDS011;5123;52.556;13.384;2022-10-15T12:31:03;6.53;;;5.90;;
10162;SDS011;5123;52.556;13.384;2022-10-15T12:33:37;7.30;;;6.60;;
10162;SDS011;5123;52.556;13.384;2022-10-15T12:36:20;8.10;;;7.07;;
10162;SDS011;5123;52.556;13.384;2022-10-15T12:38:59;7.17;;;6.53;;
10162;SDS011;5123;52.556;13.384;2022-10-15T12:41:47;7.43;;;6.47;;
10162;SDS011;5123;52.556;13.384;2022-10-15T12:44:20;8.23;;;7.43;;
10162;SDS011;5123;52.556;13.384;2022-10-15T12:46:58;8.83;;;8.00;;
10162;SDS011;5123;52.556;13.384;2022-10-15T12:50:03;11.50;;;8.53;;
10162;SDS011;5123;52.556;13.384;2022-10-15T12:52:53;6.67;;;6.00;;
10162;SDS011;5123;52.556;13.384;2022-10-15T12:55:27;5.73;;;5.23;;
10162;SDS011;5123;52.556;13.384;2022-10-15T12:58:03;7.63;;;5.23;;
10162;SDS011;5123;52.556;13.384;2022-10-15T13:00:37;6.53;;;5.93;;
10162;SDS011;5123;52.556;13.384;2022-10-15T13:06:23;9.13;;;8.23;;
10162;SDS011;5123;52.556;13.384;2022-10-15T13:09:00;11.47;;;8.53;;
10162;SDS011;5123;52.556;13.384;2022-10-15T13:11:34;6.03;;;5.43;;
10162;SDS011;5123;52.556;13.384;2022-10-15T13:14:14;6.83;;;6.23;;
10162;SDS011;5123;52.556;13.384;2022-10-15T13:16:48;8.73;;;7.90;;
10162;SDS011;5123;52.556;13.384;2022-10-15T13:19:22;10.80;;;9.33;;
10162;SDS011;5123;52.556;13.384;2022-10-15T13:21:57;7.80;;;6.63;;
10162;SDS011;5123;52.556;13.384;2022-10-15T13:24:37;7.80;;;4.27;;
10162;SDS011;5123;52.556;13.384;2022-10-15T13:27:14;8.53;;;7.10;;
10162;SDS011;5123;52.556;13.384;2022-10-15T13:29:58;8.77;;;6.90;;
10162;SDS011;5123;52.556;13.384;2022-10-15T13:32:32;5.57;;;4.60;;
10162;SDS011;5123;52.556;13.384;2022-10-15T13:35:08;5.03;;;4.53;;
10162;SDS011;5123;52.556;13.384;2022-10-15T13:37:42;6.17;;;5.57;;
10162;SDS011;5123;52.556;13.384;2022-10-15T13:40:16;4.90;;;4.40;;
10162;SDS011;5123;52.556;13.384;2022-10-15T13:42:59;5.20;;;4.70;;
10162;SDS011;5123;52.556;13.384;2022-10-15T13:45:34;4.70;;;4.20;;
10162;SDS011;5123;52.556;13.384;2022-10-15T13:48:11;5.23;;;4.20;;
10162;SDS011;5123;52.556;13.384;2022-10-15T13:50:45;8.80;;;6.37;;
10162;SDS011;5123;52.556;13.384;2022-10-15T13:53:21;8.27;;;6.67;;
10162;SDS011;5123;52.556;13.384;2022-10-15T13:55:55;7.43;;;6.37;;
10162;SDS011;5123;52.556;13.384;2022-10-15T13:58:29;6.40;;;5.10;;
10162;SDS011;5123;52.556;13.384;2022-10-15T14:01:06;5.97;;;4.90;;
10162;SDS011;5123;52.556;13.384;2022-10-15T14:03:44;6.87;;;6.20;;
10162;SDS011;5123;52.556;13.384;2022-10-15T14:06:17;8.77;;;6.53;;
10162;SDS011;5123;52.556;13.384;2022-10-15T14:08:51;7.90;;;5.60;;
10162;SDS011;5123;52.556;13.384;2022-10-15T14:11:24;7.70;;;6.43;;
10162;SDS011;5123;52.556;13.384;2022-10-15T14:13:57;8.60;;;7.13;;
10162;SDS011;5123;52.556;13.384;2022-10-15T14:16:32;7.63;;;6.50;;
10162;SDS011;5123;52.556;13.384;2022-10-15T14:19:07;6.17;;;5.17;;
10162;SDS011;5123;52.556;13.384;2022-10-15T14:21:41;5.73;;;4.70;;
10162;SDS011;5123;52.556;13.384;2022-10-15T14:24:18;5.13;;;4.60;;
10162;SDS011;5123;52.556;13.384;2022-10-15T14:26:51;4.60;;;4.20;;
10162;SDS011;5123;52.556;13.384;2022-10-15T14:29:24;5.60;;;4.43;;
10162;SDS011;5123;52.556;13.384;2022-10-15T14:31:59;4.83;;;4.43;;
10162;SDS011;5123;52.556;13.384;2022-10-15T14:34:34;5.87;;;5.20;;
10162;SDS011;5123;52.556;13.384;2022-10-15T14:37:29;6.40;;;5.77;;
10162;SDS011;5123;52.556;13.384;2022-10-15T14:40:07;4.80;;;4.40;;
10162;SDS011;5123;52.556;13.384;2022-10-15T14:42:42;6.03;;;5.00;;
10162;SDS011;5123;52.556;13.384;2022-10-15T14:45:19;5.47;;;4.90;;
10162;SDS011;5123;52.556;13.384;2022-10-15T14:47:55;5.17;;;4.40;;
10162;SDS011;5123;52.556;13.384;2022-10-15T14:50:28;3.53;;;3.27;;
10162;SDS011;5123;52.556;13.384;2022-10-15T14:53:04;4.63;;;4.23;;
10162;SDS011;5123;52.556;13.384;2022-10-15T14:55:40;6.70;;;6.00;;
10162;SDS011;5123;52.556;13.384;2022-10-15T14:58:15;8.27;;;6.27;;
10162;SDS011;5123;52.556;13.384;2022-10-15T15:00:53;7.77;;;6.93;;
10162;SDS011;5123;52.556;13.384;2022-10-15T15:03:29;8.63;;;7.67;;
10162;SDS011;5123;52.556;13.384;2022-10-15T15:06:02;8.63;;;6.77;;
10162;SDS011;5123;52.556;13.384;2022-10-15T15:08:35;10.23;;;7.80;;
10162;SDS011;5123;52.556;13.384;2022-10-15T15:11:09;10.10;;;9.00;;
10162;SDS011;5123;52.556;13.384;2022-10-15T15:13:43;10.27;;;8.47;;
10162;SDS011;5123;52.556;13.384;2022-10-15T15:16:16;9.33;;;8.07;;
10162;SDS011;5123;52.556;13.384;2022-10-15T15:18:51;8.47;;;7.50;;
10162;SDS011;5123;52.556;13.384;2022-10-15T15:21:23;6.97;;;5.57;;
10162;SDS011;5123;52.556;13.384;2022-10-15T15:23:57;5.63;;;5.10;;
10162;SDS011;5123;52.556;13.384;2022-10-15T15:26:32;6.70;;;4.83;;